sensor_id;sensor_type;location;lat;lon;timestamp;P1;durP1;ratioP1;P2;durP2;ratioP2
30553;SDS011;17335;50.720;7.452;2023-06-19T00:01:37;8.55;;;6.03;;
30553;SDS011;17335;50.720;7.452;2023-06-19T00:04:03;8.35;;;5.72;;
30553;SDS011;17335;50.720;7.452;2023-06-19T00:06:30;8.60;;;5.78;;
30553;SDS011;17335;50.720;7.452;2023-06-19T00:08:57;8.40;;;6.10;;
30553;SDS011;17335;50.720;7.452;2023-06-19T00:11:23;9.02;;;5.75;;
30553;SDS011;17335;50.720;7.452;2023-06-19T00:13:50;9.73;;;6.40;;
30553;SDS011;17335;50.720;7.452;2023-06-19T00:16:16;10.65;;;5.60;;
30553;SDS011;17335;50.720;7.452;2023-06-19T00:18:44;10.40;;;6.13;;
30553;SDS011;17335;50.720;7.452;2023-06-19T00:21:11;8.80;;;6.13;;
30553;SDS011;17335;50.720;7.452;2023-06-19T00:23:38;9.60;;;6.30;;
30553;SDS011;17335;50.720;7.452;2023-06-19T00:26:04;8.95;;;5.82;;
30553;SDS011;17335;50.720;7.452;2023-06-19T00:28:31;9.40;;;5.70;;
30553;SDS011;17335;50.720;7.452;2023-06-19T00:30:57;9.40;;;6.20;;
30553;SDS011;17335;50.720;7.452;2023-06-19T00:33:24;10.02;;;6.03;;
30553;SDS011;17335;50.720;7.452;2023-06-19T00:35:51;8.80;;;5.90;;
30553;SDS011;17335;50.720;7.452;2023-06-19T00:38:17;9.15;;;6.15;;
30553;SDS011;17335;50.720;7.452;2023-06-19T00:40:44;8.95;;;5.15;;
30553;SDS011;17335;50.720;7.452;2023-06-19T00:43:11;8.35;;;5.30;;
30553;SDS011;17335;50.720;7.452;2023-06-19T00:45:37;11.07;;;6.40;;
30553;SDS011;17335;50.720;7.452;2023-06-19T00:48:05;8.88;;;5.78;;
30553;SDS011;17335;50.720;7.452;2023-06-19T00:50:32;9.25;;;6.00;;
30553;SDS011;17335;50.720;7.452;2023-06-19T00:52:59;9.30;;;6.32;;
30553;SDS011;17335;50.720;7.452;2023-06-19T00:55:29;9.05;;;6.00;;
30553;SDS011;17335;50.720;7.452;2023-06-19T00:57:59;9.43;;;5.75;;
30553;SDS011;17335;50.720;7.452;2023-06-19T01:00:26;9.27;;;5.45;;
30553;SDS011;17335;50.720;7.452;2023-06-19T01:02:53;9.82;;;5.93;;
30553;SDS011;17335;50.720;7.452;2023-06-19T01:05:19;7.78;;;5.70;;
30553;SDS011;17335;50.720;7.452;2023-06-19T01:07:52;12.13;;;6.25;;
30553;SDS011;17335;50.720;7.452;2023-06-19T01:10:22;8.30;;;5.50;;
30553;SDS011;17335;50.720;7.452;2023-06-19T01:13:19;12.45;;;5.70;;
30553;SDS011;17335;50.720;7.452;2023-06-19T01:15:50;9.48;;;6.45;;
30553;SDS011;17335;50.720;7.452;2023-06-19T01:18:16;10.27;;;6.30;;
30553;SDS011;17335;50.720;7.452;2023-06-19T01:20:43;8.20;;;5.70;;
30553;SDS011;17335;50.720;7.452;2023-06-19T01:23:10;9.55;;;6.35;;
30553;SDS011;17335;50.720;7.452;2023-06-19T01:25:38;9.70;;;6.10;;
30553;SDS011;17335;50.720;7.452;2023-06-19T01:28:06;10.18;;;6.18;;
30553;SDS011;17335;50.720;7.452;2023-06-19T01:30:39;11.20;;;6.20;;
30553;SDS011;17335;50.720;7.452;2023-06-19T01:33:14;9.27;;;6.40;;
30553;SDS011;17335;50.720;7.452;2023-06-19T01:35:45;9.07;;;6.32;;
30553;SDS011;17335;50.720;7.452;2023-06-19T01:38:13;9.73;;;6.05;;
30553;SDS011;17335;50.720;7.452;2023-06-19T01:40:42;10.80;;;6.38;;
30553;SDS011;17335;50.720;7.452;2023-06-19T01:43:09;9.48;;;6.00;;
30553;SDS011;17335;50.720;7.452;2023-06-19T01:45:37;9.52;;;6.18;;
30553;SDS011;17335;50.720;7.452;2023-06-19T01:48:03;9.02;;;6.07;;
30553;SDS011;17335;50.720;7.452;2023-06-19T01:50:30;8.40;;;5.85;;
30553;SDS011;17335;50.720;7.452;2023-06-19T01:52:57;9.52;;;5.90;;
30553;SDS011;17335;50.720;7.452;2023-06-19T01:55:23;9.90;;;5.72;;
30553;SDS011;17335;50.720;7.452;2023-06-19T01:57:50;9.27;;;6.47;;
30553;SDS011;17335;50.720;7.452;2023-06-19T02:00:16;9.27;;;6.22;;
30553;SDS011;17335;50.720;7.452;2023-06-19T02:02:43;8.93;;;6.07;;
30553;SDS011;17335;50.720;7.452;2023-06-19T02:05:11;11.43;;;6.35;;
30553;SDS011;17335;50.720;7.452;2023-06-19T02:07:37;13.63;;;6.35;;
30553;SDS011;17335;50.720;7.452;2023-06-19T02:10:05;9.13;;;6.53;;
30553;SDS011;17335;50.720;7.452;2023-06-19T02:12:32;11.35;;;6.03;;
30553;SDS011;17335;50.720;7.452;2023-06-19T02:14:58;12.13;;;6.28;;
30553;SDS011;17335;50.720;7.452;2023-06-19T02:17:25;10.98;;;6.13;;
30553;SDS011;17335;50.720;7.452;2023-06-19T02:19:52;8.63;;;5.60;;
30553;SDS011;17335;50.720;7.452;2023-06-19T02:22:19;15.18;;;6.13;;
30553;SDS011;17335;50.720;7.452;2023-06-19T02:24:45;9.90;;;6.20;;
30553;SDS011;17335;50.720;7.452;2023-06-19T02:27:12;9.27;;;6.32;;
30553;SDS011;17335;50.720;7.452;2023-06-19T02:29:38;12.80;;;6.28;;
30553;SDS011;17335;50.720;7.452;2023-06-19T02:32:05;9.95;;;5.45;;
30553;SDS011;17335;50.720;7.452;2023-06-19T02:34:31;8.55;;;5.90;;
30553;SDS011;17335;50.720;7.452;2023-06-19T02:36:59;8.00;;;6.03;;
30553;SDS011;17335;50.720;7.452;2023-06-19T02:39:25;8.98;;;6.15;;
30553;SDS011;17335;50.720;7.452;2023-06-19T02:41:52;9.82;;;5.90;;
30553;SDS011;17335;50.720;7.452;2023-06-19T02:44:18;8.45;;;5.85;;
30553;SDS011;17335;50.720;7.452;2023-06-19T02:46:45;9.00;;;6.13;;
30553;SDS011;17335;50.720;7.452;2023-06-19T02:49:12;8.05;;;5.82;;
30553;SDS011;17335;50.720;7.452;2023-06-19T02:51:38;8.88;;;6.00;;
30553;SDS011;17335;50.720;7.452;2023-06-19T02:54:07;9.63;;;6.45;;
30553;SDS011;17335;50.720;7.452;2023-06-19T02:56:34;9.52;;;6.32;;
30553;SDS011;17335;50.720;7.452;2023-06-19T02:59:00;10.25;;;6.55;;
30553;SDS011;17335;50.720;7.452;2023-06-19T03:01:27;12.00;;;6.95;;
30553;SDS011;17335;50.720;7.452;2023-06-19T03:03:54;12.60;;;6.35;;
30553;SDS011;17335;50.720;7.452;2023-06-19T03:06:20;9.45;;;6.53;;
30553;SDS011;17335;50.720;7.452;2023-06-19T03:08:47;9.82;;;6.65;;
30553;SDS011;17335;50.720;7.452;2023-06-19T03:11:14;9.50;;;6.45;;
30553;SDS011;17335;50.720;7.452;2023-06-19T03:13:44;8.23;;;6.03;;
30553;SDS011;17335;50.720;7.452;2023-06-19T03:16:17;10.43;;;5.82;;
30553;SDS011;17335;50.720;7.452;2023-06-19T03:18:44;9.77;;;6.22;;
30553;SDS011;17335;50.720;7.452;2023-06-19T03:21:11;10.43;;;6.30;;
30553;SDS011;17335;50.720;7.452;2023-06-19T03:23:41;10.20;;;6.40;;
30553;SDS011;17335;50.720;7.452;2023-06-19T03:26:08;9.63;;;6.25;;
30553;SDS011;17335;50.720;7.452;2023-06-19T03:28:36;9.02;;;6.28;;
30553;SDS011;17335;50.720;7.452;2023-06-19T03:31:03;13.68;;;6.20;;
30553;SDS011;17335;50.720;7.452;2023-06-19T03:33:30;12.95;;;6.38;;
30553;SDS011;17335;50.720;7.452;2023-06-19T03:35:56;11.48;;;5.75;;
30553;SDS011;17335;50.720;7.452;2023-06-19T03:38:23;9.27;;;6.45;;
30553;SDS011;17335;50.720;7.452;2023-06-19T03:40:49;11.18;;;6.07;;
30553;SDS011;17335;50.720;7.452;2023-06-19T03:43:15;9.40;;;5.95;;
30553;SDS011;17335;50.720;7.452;2023-06-19T03:45:42;11.20;;;6.60;;
30553;SDS011;17335;50.720;7.452;2023-06-19T03:48:08;11.27;;;6.60;;
30553;SDS011;17335;50.720;7.452;2023-06-19T03:50:35;9.90;;;6.57;;
30553;SDS011;17335;50.720;7.452;2023-06-19T03:53:02;9.18;;;6.32;;
30553;SDS011;17335;50.720;7.452;2023-06-19T03:55:29;13.55;;;6.43;;
30553;SDS011;17335;50.720;7.452;2023-06-19T03:57:55;10.63;;;6.15;;
30553;SDS011;17335;50.720;7.452;2023-06-19T04:00:22;9.70;;;6.03;;
30553;SDS011;17335;50.720;7.452;2023-06-19T04:02:49;9.60;;;6.60;;
30553;SDS011;17335;50.720;7.452;2023-06-19T04:05:16;10.23;;;6.60;;
30553;SDS011;17335;50.720;7.452;2023-06-19T04:07:43;9.18;;;5.97;;
30553;SDS011;17335;50.720;7.452;2023-06-19T04:10:10;10.45;;;6.28;;
30553;SDS011;17335;50.720;7.452;2023-06-19T04:12:38;9.35;;;6.28;;
30553;SDS011;17335;50.720;7.452;2023-06-19T04:15:07;15.00;;;7.30;;
30553;SDS011;17335;50.720;7.452;2023-06-19T04:17:34;8.25;;;5.60;;
30553;SDS011;17335;50.720;7.452;2023-06-19T04:20:03;9.88;;;6.35;;
30553;SDS011;17335;50.720;7.452;2023-06-19T04:22:37;14.25;;;6.60;;
30553;SDS011;17335;50.720;7.452;2023-06-19T04:25:08;8.63;;;6.55;;
30553;SDS011;17335;50.720;7.452;2023-06-19T04:27:37;9.45;;;6.47;;
30553;SDS011;17335;50.720;7.452;2023-06-19T04:30:03;10.80;;;6.50;;
30553;SDS011;17335;50.720;7.452;2023-06-19T04:32:33;9.07;;;6.35;;
30553;SDS011;17335;50.720;7.452;2023-06-19T04:35:01;10.18;;;6.38;;
30553;SDS011;17335;50.720;7.452;2023-06-19T04:37:28;10.18;;;6.43;;
30553;SDS011;17335;50.720;7.452;2023-06-19T04:39:54;9.93;;;6.07;;
30553;SDS011;17335;50.720;7.452;2023-06-19T04:42:22;12.80;;;6.43;;
30553;SDS011;17335;50.720;7.452;2023-06-19T04:44:48;10.10;;;6.28;;
30553;SDS011;17335;50.720;7.452;2023-06-19T04:47:17;8.88;;;6.15;;
30553;SDS011;17335;50.720;7.452;2023-06-19T04:49:44;12.68;;;5.95;;
30553;SDS011;17335;50.720;7.452;2023-06-19T04:52:11;8.88;;;5.43;;
30553;SDS011;17335;50.720;7.452;2023-06-19T04:54:38;8.10;;;5.70;;
30553;SDS011;17335;50.720;7.452;2023-06-19T04:57:05;9.38;;;5.90;;
30553;SDS011;17335;50.720;7.452;2023-06-19T04:59:32;7.97;;;5.38;;
30553;SDS011;17335;50.720;7.452;2023-06-19T05:01:59;11.32;;;6.30;;
30553;SDS011;17335;50.720;7.452;2023-06-19T05:04:26;9.23;;;5.80;;
30553;SDS011;17335;50.720;7.452;2023-06-19T05:06:53;10.73;;;5.97;;
30553;SDS011;17335;50.720;7.452;2023-06-19T05:09:19;7.45;;;5.57;;
30553;SDS011;17335;50.720;7.452;2023-06-19T05:11:46;11.07;;;6.18;;
30553;SDS011;17335;50.720;7.452;2023-06-19T05:14:12;8.52;;;6.13;;
30553;SDS011;17335;50.720;7.452;2023-06-19T05:16:40;8.50;;;5.70;;
30553;SDS011;17335;50.720;7.452;2023-06-19T05:19:08;8.70;;;5.60;;
30553;SDS011;17335;50.720;7.452;2023-06-19T05:21:34;7.85;;;5.10;;
30553;SDS011;17335;50.720;7.452;2023-06-19T05:24:01;10.88;;;5.38;;
30553;SDS011;17335;50.720;7.452;2023-06-19T05:26:28;9.07;;;5.30;;
30553;SDS011;17335;50.720;7.452;2023-06-19T05:28:54;8.88;;;5.60;;
30553;SDS011;17335;50.720;7.452;2023-06-19T05:31:21;11.90;;;5.95;;
30553;SDS011;17335;50.720;7.452;2023-06-19T05:33:47;8.38;;;5.45;;
30553;SDS011;17335;50.720;7.452;2023-06-19T05:36:13;7.40;;;5.10;;
30553;SDS011;17335;50.720;7.452;2023-06-19T05:38:40;8.32;;;5.30;;
30553;SDS011;17335;50.720;7.452;2023-06-19T05:41:07;11.38;;;5.38;;
30553;SDS011;17335;50.720;7.452;2023-06-19T05:43:34;9.00;;;5.80;;
30553;SDS011;17335;50.720;7.452;2023-06-19T05:46:01;8.68;;;5.32;;
30553;SDS011;17335;50.720;7.452;2023-06-19T05:48:29;11.07;;;5.55;;
30553;SDS011;17335;50.720;7.452;2023-06-19T05:50:56;9.50;;;5.68;;
30553;SDS011;17335;50.720;7.452;2023-06-19T05:53:22;8.00;;;5.15;;
30553;SDS011;17335;50.720;7.452;2023-06-19T05:55:49;12.65;;;5.38;;
30553;SDS011;17335;50.720;7.452;2023-06-19T05:58:16;8.18;;;5.13;;
30553;SDS011;17335;50.720;7.452;2023-06-19T06:00:46;10.07;;;5.63;;
30553;SDS011;17335;50.720;7.452;2023-06-19T06:03:13;7.95;;;5.40;;
30553;SDS011;17335;50.720;7.452;2023-06-19T06:05:41;8.32;;;4.95;;
30553;SDS011;17335;50.720;7.452;2023-06-19T06:08:08;7.32;;;4.40;;
30553;SDS011;17335;50.720;7.452;2023-06-19T06:10:34;11.75;;;5.03;;
30553;SDS011;17335;50.720;7.452;2023-06-19T06:13:01;8.00;;;4.72;;
30553;SDS011;17335;50.720;7.452;2023-06-19T06:15:28;10.98;;;5.05;;
30553;SDS011;17335;50.720;7.452;2023-06-19T06:17:55;9.95;;;4.90;;
30553;SDS011;17335;50.720;7.452;2023-06-19T06:20:21;8.55;;;4.57;;
30553;SDS011;17335;50.720;7.452;2023-06-19T06:22:49;7.13;;;4.88;;
30553;SDS011;17335;50.720;7.452;2023-06-19T06:25:15;8.95;;;5.22;;
30553;SDS011;17335;50.720;7.452;2023-06-19T06:27:42;8.13;;;4.88;;
30553;SDS011;17335;50.720;7.452;2023-06-19T06:30:08;7.72;;;5.22;;
30553;SDS011;17335;50.720;7.452;2023-06-19T06:32:37;7.43;;;4.53;;
30553;SDS011;17335;50.720;7.452;2023-06-19T06:35:04;9.30;;;5.22;;
30553;SDS011;17335;50.720;7.452;2023-06-19T06:37:31;6.35;;;4.22;;
30553;SDS011;17335;50.720;7.452;2023-06-19T06:39:57;7.00;;;4.60;;
30553;SDS011;17335;50.720;7.452;2023-06-19T06:42:24;8.02;;;4.60;;
30553;SDS011;17335;50.720;7.452;2023-06-19T06:44:50;7.32;;;4.22;;
30553;SDS011;17335;50.720;7.452;2023-06-19T06:47:17;7.07;;;4.20;;
30553;SDS011;17335;50.720;7.452;2023-06-19T06:49:43;6.75;;;4.03;;
30553;SDS011;17335;50.720;7.452;2023-06-19T06:52:10;7.65;;;4.47;;
30553;SDS011;17335;50.720;7.452;2023-06-19T06:54:36;6.78;;;4.32;;
30553;SDS011;17335;50.720;7.452;2023-06-19T06:57:03;8.80;;;4.35;;
30553;SDS011;17335;50.720;7.452;2023-06-19T06:59:31;7.47;;;4.30;;
30553;SDS011;17335;50.720;7.452;2023-06-19T07:01:58;5.88;;;3.70;;
30553;SDS011;17335;50.720;7.452;2023-06-19T07:04:24;6.35;;;3.70;;
30553;SDS011;17335;50.720;7.452;2023-06-19T07:06:51;6.55;;;4.10;;
30553;SDS011;17335;50.720;7.452;2023-06-19T07:09:18;6.90;;;3.75;;
30553;SDS011;17335;50.720;7.452;2023-06-19T07:11:44;5.38;;;3.58;;
30553;SDS011;17335;50.720;7.452;2023-06-19T07:14:11;6.05;;;3.55;;
30553;SDS011;17335;50.720;7.452;2023-06-19T07:16:37;6.45;;;4.10;;
30553;SDS011;17335;50.720;7.452;2023-06-19T07:19:04;5.90;;;3.83;;
30553;SDS011;17335;50.720;7.452;2023-06-19T07:21:30;5.97;;;3.20;;
30553;SDS011;17335;50.720;7.452;2023-06-19T07:23:57;5.97;;;3.33;;
30553;SDS011;17335;50.720;7.452;2023-06-19T07:26:24;5.03;;;3.38;;
30553;SDS011;17335;50.720;7.452;2023-06-19T07:28:51;5.93;;;3.42;;
30553;SDS011;17335;50.720;7.452;2023-06-19T07:31:17;7.97;;;3.50;;
30553;SDS011;17335;50.720;7.452;2023-06-19T07:33:43;5.93;;;3.63;;
30553;SDS011;17335;50.720;7.452;2023-06-19T07:36:10;7.68;;;3.30;;
30553;SDS011;17335;50.720;7.452;2023-06-19T07:38:40;5.60;;;3.15;;
30553;SDS011;17335;50.720;7.452;2023-06-19T07:41:07;7.28;;;2.90;;
30553;SDS011;17335;50.720;7.452;2023-06-19T07:43:36;5.90;;;3.08;;
30553;SDS011;17335;50.720;7.452;2023-06-19T07:46:03;4.88;;;2.88;;
30553;SDS011;17335;50.720;7.452;2023-06-19T07:48:30;7.22;;;2.95;;
30553;SDS011;17335;50.720;7.452;2023-06-19T07:50:56;5.43;;;2.80;;
30553;SDS011;17335;50.720;7.452;2023-06-19T07:53:23;4.35;;;2.40;;
30553;SDS011;17335;50.720;7.452;2023-06-19T07:55:49;4.38;;;3.00;;
30553;SDS011;17335;50.720;7.452;2023-06-19T07:58:16;5.22;;;3.00;;
30553;SDS011;17335;50.720;7.452;2023-06-19T08:00:42;4.95;;;2.75;;
30553;SDS011;17335;50.720;7.452;2023-06-19T08:03:09;5.85;;;2.50;;
30553;SDS011;17335;50.720;7.452;2023-06-19T08:05:35;6.18;;;2.65;;
30553;SDS011;17335;50.720;7.452;2023-06-19T08:08:02;3.83;;;2.13;;
30553;SDS011;17335;50.720;7.452;2023-06-19T08:10:28;7.30;;;2.35;;
30553;SDS011;17335;50.720;7.452;2023-06-19T08:12:55;5.95;;;3.00;;
30553;SDS011;17335;50.720;7.452;2023-06-19T08:15:22;4.30;;;2.30;;
30553;SDS011;17335;50.720;7.452;2023-06-19T08:17:48;4.93;;;2.97;;
30553;SDS011;17335;50.720;7.452;2023-06-19T08:20:15;5.10;;;3.17;;
30553;SDS011;17335;50.720;7.452;2023-06-19T08:22:42;8.20;;;3.55;;
30553;SDS011;17335;50.720;7.452;2023-06-19T08:25:08;4.80;;;2.78;;
30553;SDS011;17335;50.720;7.452;2023-06-19T08:27:35;7.20;;;3.17;;
30553;SDS011;17335;50.720;7.452;2023-06-19T08:30:01;7.50;;;3.53;;
30553;SDS011;17335;50.720;7.452;2023-06-19T08:32:28;6.05;;;3.55;;
30553;SDS011;17335;50.720;7.452;2023-06-19T08:34:54;7.40;;;3.92;;
30553;SDS011;17335;50.720;7.452;2023-06-19T08:37:21;7.63;;;3.28;;
30553;SDS011;17335;50.720;7.452;2023-06-19T08:39:48;4.95;;;2.90;;
30553;SDS011;17335;50.720;7.452;2023-06-19T08:42:14;5.78;;;3.50;;
30553;SDS011;17335;50.720;7.452;2023-06-19T08:44:41;7.10;;;3.58;;
30553;SDS011;17335;50.720;7.452;2023-06-19T08:47:07;6.60;;;3.80;;
30553;SDS011;17335;50.720;7.452;2023-06-19T08:49:36;5.88;;;3.75;;
30553;SDS011;17335;50.720;7.452;2023-06-19T08:52:02;6.20;;;3.67;;
30553;SDS011;17335;50.720;7.452;2023-06-19T08:54:29;6.90;;;3.83;;
30553;SDS011;17335;50.720;7.452;2023-06-19T08:56:59;5.85;;;3.65;;
30553;SDS011;17335;50.720;7.452;2023-06-19T08:59:27;6.20;;;3.20;;
30553;SDS011;17335;50.720;7.452;2023-06-19T09:01:54;5.22;;;2.83;;
30553;SDS011;17335;50.720;7.452;2023-06-19T09:04:23;6.55;;;3.05;;
30553;SDS011;17335;50.720;7.452;2023-06-19T09:09:20;9.60;;;3.22;;
30553;SDS011;17335;50.720;7.452;2023-06-19T09:12:05;5.88;;;3.05;;
30553;SDS011;17335;50.720;7.452;2023-06-19T09:14:36;5.18;;;2.67;;
30553;SDS011;17335;50.720;7.452;2023-06-19T09:17:04;6.38;;;3.15;;
30553;SDS011;17335;50.720;7.452;2023-06-19T09:19:36;4.00;;;2.55;;
30553;SDS011;17335;50.720;7.452;2023-06-19T09:22:03;5.60;;;3.00;;
30553;SDS011;17335;50.720;7.452;2023-06-19T09:24:36;4.38;;;2.63;;
30553;SDS011;17335;50.720;7.452;2023-06-19T09:27:07;6.32;;;2.63;;
30553;SDS011;17335;50.720;7.452;2023-06-19T09:29:40;4.45;;;2.60;;
30553;SDS011;17335;50.720;7.452;2023-06-19T09:32:14;4.03;;;2.40;;
30553;SDS011;17335;50.720;7.452;2023-06-19T09:34:45;3.80;;;2.30;;
30553;SDS011;17335;50.720;7.452;2023-06-19T09:37:12;4.03;;;2.55;;
30553;SDS011;17335;50.720;7.452;2023-06-19T09:39:40;3.17;;;1.92;;
30553;SDS011;17335;50.720;7.452;2023-06-19T09:42:08;2.92;;;1.95;;
30553;SDS011;17335;50.720;7.452;2023-06-19T09:44:41;3.50;;;2.20;;
30553;SDS011;17335;50.720;7.452;2023-06-19T09:47:17;8.15;;;2.13;;
30553;SDS011;17335;50.720;7.452;2023-06-19T09:49:49;3.15;;;1.90;;
30553;SDS011;17335;50.720;7.452;2023-06-19T09:52:21;3.90;;;2.15;;
30553;SDS011;17335;50.720;7.452;2023-06-19T09:54:50;2.97;;;1.77;;
30553;SDS011;17335;50.720;7.452;2023-06-19T09:57:18;4.20;;;1.73;;
30553;SDS011;17335;50.720;7.452;2023-06-19T09:59:50;2.80;;;1.52;;
30553;SDS011;17335;50.720;7.452;2023-06-19T10:02:27;3.67;;;1.75;;
30553;SDS011;17335;50.720;7.452;2023-06-19T10:04:55;3.40;;;2.10;;
30553;SDS011;17335;50.720;7.452;2023-06-19T10:07:23;3.58;;;1.75;;
30553;SDS011;17335;50.720;7.452;2023-06-19T10:09:54;3.90;;;1.77;;
30553;SDS011;17335;50.720;7.452;2023-06-19T10:15:08;3.58;;;1.63;;
30553;SDS011;17335;50.720;7.452;2023-06-19T10:17:43;3.00;;;1.60;;
30553;SDS011;17335;50.720;7.452;2023-06-19T10:20:24;2.22;;;1.30;;
30553;SDS011;17335;50.720;7.452;2023-06-19T10:25:30;5.72;;;1.70;;
30553;SDS011;17335;50.720;7.452;2023-06-19T10:28:01;3.92;;;1.77;;
30553;SDS011;17335;50.720;7.452;2023-06-19T10:30:32;3.50;;;1.90;;
30553;SDS011;17335;50.720;7.452;2023-06-19T10:33:00;3.25;;;1.60;;
30553;SDS011;17335;50.720;7.452;2023-06-19T10:35:37;3.00;;;1.50;;
30553;SDS011;17335;50.720;7.452;2023-06-19T10:38:07;2.88;;;1.83;;
30553;SDS011;17335;50.720;7.452;2023-06-19T10:40:37;5.20;;;2.00;;
30553;SDS011;17335;50.720;7.452;2023-06-19T10:43:04;3.13;;;2.03;;
30553;SDS011;17335;50.720;7.452;2023-06-19T10:45:31;3.85;;;1.90;;
30553;SDS011;17335;50.720;7.452;2023-06-19T10:48:02;4.00;;;1.83;;
30553;SDS011;17335;50.720;7.452;2023-06-19T10:50:33;3.83;;;1.92;;
30553;SDS011;17335;50.720;7.452;2023-06-19T10:53:06;3.58;;;1.92;;
30553;SDS011;17335;50.720;7.452;2023-06-19T10:55:33;3.63;;;1.52;;
30553;SDS011;17335;50.720;7.452;2023-06-19T10:58:01;3.45;;;1.65;;
30553;SDS011;17335;50.720;7.452;2023-06-19T11:00:29;3.17;;;2.08;;
30553;SDS011;17335;50.720;7.452;2023-06-19T11:02:57;3.53;;;1.90;;
30553;SDS011;17335;50.720;7.452;2023-06-19T11:05:26;3.85;;;2.05;;
30553;SDS011;17335;50.720;7.452;2023-06-19T11:07:54;3.95;;;1.98;;
30553;SDS011;17335;50.720;7.452;2023-06-19T11:10:23;4.20;;;1.88;;
30553;SDS011;17335;50.720;7.452;2023-06-19T11:12:56;3.05;;;1.77;;
30553;SDS011;17335;50.720;7.452;2023-06-19T11:15:30;3.00;;;1.90;;
30553;SDS011;17335;50.720;7.452;2023-06-19T11:17:58;4.95;;;2.30;;
30553;SDS011;17335;50.720;7.452;2023-06-19T11:20:25;3.08;;;1.90;;
30553;SDS011;17335;50.720;7.452;2023-06-19T11:22:59;3.90;;;2.25;;
30553;SDS011;17335;50.720;7.452;2023-06-19T11:25:36;4.82;;;2.10;;
30553;SDS011;17335;50.720;7.452;2023-06-19T11:28:13;3.40;;;1.83;;
30553;SDS011;17335;50.720;7.452;2023-06-19T11:30:41;5.22;;;1.90;;
30553;SDS011;17335;50.720;7.452;2023-06-19T11:33:17;5.18;;;2.20;;
30553;SDS011;17335;50.720;7.452;2023-06-19T11:35:50;4.13;;;2.30;;
30553;SDS011;17335;50.720;7.452;2023-06-19T11:38:18;4.78;;;2.08;;
30553;SDS011;17335;50.720;7.452;2023-06-19T11:40:46;5.18;;;2.45;;
30553;SDS011;17335;50.720;7.452;2023-06-19T11:43:22;5.50;;;2.20;;
30553;SDS011;17335;50.720;7.452;2023-06-19T11:45:50;4.82;;;2.20;;
30553;SDS011;17335;50.720;7.452;2023-06-19T11:48:25;4.47;;;2.08;;
30553;SDS011;17335;50.720;7.452;2023-06-19T11:50:53;4.10;;;2.05;;
30553;SDS011;17335;50.720;7.452;2023-06-19T11:53:20;4.50;;;2.30;;
30553;SDS011;17335;50.720;7.452;2023-06-19T11:55:47;4.07;;;2.08;;
30553;SDS011;17335;50.720;7.452;2023-06-19T11:58:14;4.78;;;2.08;;
30553;SDS011;17335;50.720;7.452;2023-06-19T12:00:41;5.38;;;2.20;;
30553;SDS011;17335;50.720;7.452;2023-06-19T12:03:09;4.88;;;2.63;;
30553;SDS011;17335;50.720;7.452;2023-06-19T12:05:36;7.55;;;2.33;;
30553;SDS011;17335;50.720;7.452;2023-06-19T12:08:04;6.05;;;2.63;;
30553;SDS011;17335;50.720;7.452;2023-06-19T12:10:31;3.78;;;2.20;;
30553;SDS011;17335;50.720;7.452;2023-06-19T12:12:58;3.72;;;2.20;;
30553;SDS011;17335;50.720;7.452;2023-06-19T12:15:25;3.15;;;1.98;;
30553;SDS011;17335;50.720;7.452;2023-06-19T12:17:52;4.00;;;2.30;;
30553;SDS011;17335;50.720;7.452;2023-06-19T12:20:18;3.67;;;2.17;;
30553;SDS011;17335;50.720;7.452;2023-06-19T12:22:45;3.40;;;2.05;;
30553;SDS011;17335;50.720;7.452;2023-06-19T12:25:12;3.72;;;2.22;;
30553;SDS011;17335;50.720;7.452;2023-06-19T12:27:38;6.13;;;2.45;;
30553;SDS011;17335;50.720;7.452;2023-06-19T12:30:05;3.90;;;2.03;;
30553;SDS011;17335;50.720;7.452;2023-06-19T12:32:32;5.07;;;2.13;;
30553;SDS011;17335;50.720;7.452;2023-06-19T12:34:58;4.25;;;2.20;;
30553;SDS011;17335;50.720;7.452;2023-06-19T12:37:25;4.38;;;2.55;;
30553;SDS011;17335;50.720;7.452;2023-06-19T12:39:51;4.85;;;2.65;;
30553;SDS011;17335;50.720;7.452;2023-06-19T12:42:18;4.65;;;2.30;;
30553;SDS011;17335;50.720;7.452;2023-06-19T12:44:45;4.53;;;2.35;;
30553;SDS011;17335;50.720;7.452;2023-06-19T12:47:12;6.15;;;2.50;;
30553;SDS011;17335;50.720;7.452;2023-06-19T12:49:41;4.80;;;2.13;;
30553;SDS011;17335;50.720;7.452;2023-06-19T12:52:07;5.00;;;2.47;;
30553;SDS011;17335;50.720;7.452;2023-06-19T12:54:34;4.75;;;2.45;;
30553;SDS011;17335;50.720;7.452;2023-06-19T12:57:01;3.72;;;2.42;;
30553;SDS011;17335;50.720;7.452;2023-06-19T12:59:28;4.38;;;2.92;;
30553;SDS011;17335;50.720;7.452;2023-06-19T13:01:55;6.00;;;2.58;;
30553;SDS011;17335;50.720;7.452;2023-06-19T13:04:22;5.70;;;2.50;;
30553;SDS011;17335;50.720;7.452;2023-06-19T13:06:48;5.70;;;2.58;;
30553;SDS011;17335;50.720;7.452;2023-06-19T13:09:14;4.57;;;2.88;;
30553;SDS011;17335;50.720;7.452;2023-06-19T13:11:42;6.38;;;2.60;;
30553;SDS011;17335;50.720;7.452;2023-06-19T13:14:09;6.55;;;3.20;;
30553;SDS011;17335;50.720;7.452;2023-06-19T13:16:35;5.47;;;2.30;;
30553;SDS011;17335;50.720;7.452;2023-06-19T13:19:04;4.80;;;2.63;;
30553;SDS011;17335;50.720;7.452;2023-06-19T13:21:31;3.85;;;2.20;;
30553;SDS011;17335;50.720;7.452;2023-06-19T13:23:58;4.28;;;2.67;;
30553;SDS011;17335;50.720;7.452;2023-06-19T13:26:24;4.18;;;2.42;;
30553;SDS011;17335;50.720;7.452;2023-06-19T13:28:50;4.43;;;2.40;;
30553;SDS011;17335;50.720;7.452;2023-06-19T13:31:18;3.80;;;2.13;;
30553;SDS011;17335;50.720;7.452;2023-06-19T13:33:44;5.68;;;2.30;;
30553;SDS011;17335;50.720;7.452;2023-06-19T13:36:11;3.95;;;2.42;;
30553;SDS011;17335;50.720;7.452;2023-06-19T13:38:37;4.05;;;2.17;;
30553;SDS011;17335;50.720;7.452;2023-06-19T13:41:04;4.45;;;2.30;;
30553;SDS011;17335;50.720;7.452;2023-06-19T13:43:31;4.22;;;2.25;;
30553;SDS011;17335;50.720;7.452;2023-06-19T13:45:57;5.97;;;2.70;;
30553;SDS011;17335;50.720;7.452;2023-06-19T13:48:25;5.15;;;2.47;;
30553;SDS011;17335;50.720;7.452;2023-06-19T13:50:51;4.75;;;2.53;;
30553;SDS011;17335;50.720;7.452;2023-06-19T13:53:18;3.90;;;2.15;;
30553;SDS011;17335;50.720;7.452;2023-06-19T13:55:45;4.28;;;2.35;;
30553;SDS011;17335;50.720;7.452;2023-06-19T13:58:13;5.68;;;2.55;;
30553;SDS011;17335;50.720;7.452;2023-06-19T14:00:39;4.32;;;2.15;;
30553;SDS011;17335;50.720;7.452;2023-06-19T14:03:06;3.80;;;2.25;;
30553;SDS011;17335;50.720;7.452;2023-06-19T14:05:33;4.13;;;2.08;;
30553;SDS011;17335;50.720;7.452;2023-06-19T14:08:03;4.00;;;2.13;;
30553;SDS011;17335;50.720;7.452;2023-06-19T14:10:30;7.28;;;2.10;;
30553;SDS011;17335;50.720;7.452;2023-06-19T14:12:56;5.50;;;1.95;;
30553;SDS011;17335;50.720;7.452;2023-06-19T14:15:23;3.67;;;2.30;;
30553;SDS011;17335;50.720;7.452;2023-06-19T14:17:50;4.63;;;2.35;;
30553;SDS011;17335;50.720;7.452;2023-06-19T14:20:17;3.65;;;1.98;;
30553;SDS011;17335;50.720;7.452;2023-06-19T14:22:43;3.90;;;2.10;;
30553;SDS011;17335;50.720;7.452;2023-06-19T14:25:10;3.55;;;2.00;;
30553;SDS011;17335;50.720;7.452;2023-06-19T14:27:36;4.43;;;2.33;;
30553;SDS011;17335;50.720;7.452;2023-06-19T14:30:03;4.30;;;2.47;;
30553;SDS011;17335;50.720;7.452;2023-06-19T14:32:30;6.68;;;2.75;;
30553;SDS011;17335;50.720;7.452;2023-06-19T14:34:57;3.97;;;2.38;;
30553;SDS011;17335;50.720;7.452;2023-06-19T14:37:23;5.18;;;2.45;;
30553;SDS011;17335;50.720;7.452;2023-06-19T14:39:50;3.28;;;1.95;;
30553;SDS011;17335;50.720;7.452;2023-06-19T14:42:16;4.18;;;2.28;;
30553;SDS011;17335;50.720;7.452;2023-06-19T14:44:43;3.90;;;1.98;;
30553;SDS011;17335;50.720;7.452;2023-06-19T14:47:10;3.55;;;2.28;;
30553;SDS011;17335;50.720;7.452;2023-06-19T14:49:37;4.10;;;2.55;;
30553;SDS011;17335;50.720;7.452;2023-06-19T14:52:04;3.33;;;1.77;;
30553;SDS011;17335;50.720;7.452;2023-06-19T14:54:31;5.45;;;2.45;;
30553;SDS011;17335;50.720;7.452;2023-06-19T14:56:58;3.90;;;2.33;;